Time;durP1;ratioP1;P1;durP2;ratioP2;P2;SDS_P1;SDS_P2;PMS_P1;PMS_P2;Temp;Humidity;BMP_temperature;BMP_pressure;BME280_temperature;BME280_humidity;BME280_pressure;Samples;Min_cycle;Max_cycle;Signal;HPM_P1;HPM_P2
2022/02/21 00:00:20;;;;;;;0.10;0.10;;;7.80;93.10;;;;;;5066539;28;20032;-83
2022/02/21 00:02:49;;;;;;;0.00;0.00;;;7.70;93.50;;;;;;5085851;28;20041;-84
2022/02/21 00:05:18;;;;;;;0.00;0.00;;;7.50;93.30;;;;;;5061612;28;20488;-84
2022/02/21 00:07:47;;;;;;;0.68;0.68;;;7.30;93.10;;;;;;5068325;28;20115;-84
2022/02/21 00:10:15;;;;;;;0.28;0.28;;;7.20;92.90;;;;;;5068594;28;20373;-83
2022/02/21 00:12:41;;;;;;;0.00;0.00;;;7.20;93.20;;;;;;5060691;28;20244;-84
2022/02/21 00:15:08;;;;;;;0.10;0.10;;;7.10;93.30;;;;;;5070209;28;20060;-84
2022/02/21 00:17:34;;;;;;;0.10;0.10;;;7.10;93.20;;;;;;5067954;28;20020;-84
2022/02/21 00:19:59;;;;;;;1.33;1.23;;;7.10;93.20;;;;;;5067613;28;20025;-83
2022/02/21 00:22:26;;;;;;;0.10;0.10;;;7.00;93.30;;;;;;5068037;28;20031;-83
2022/02/21 00:24:53;;;;;;;0.88;0.68;;;7.00;93.40;;;;;;5064694;28;20032;-84
2022/02/21 00:27:19;;;;;;;0.10;0.10;;;7.00;92.60;;;;;;5071050;28;20020;-83
2022/02/21 00:29:45;;;;;;;0.10;0.10;;;6.90;92.30;;;;;;5069535;28;20028;-83
2022/02/21 00:32:11;;;;;;;0.10;0.10;;;6.80;91.60;;;;;;5067620;28;20039;-83
2022/02/21 00:34:36;;;;;;;0.10;0.10;;;6.70;91.80;;;;;;5069010;28;20036;-83
2022/02/21 00:37:02;;;;;;;0.10;0.10;;;6.60;92.20;;;;;;5065485;28;20447;-83
2022/02/21 00:39:28;;;;;;;0.05;0.05;;;6.50;91.90;;;;;;5075770;28;20111;-83
2022/02/21 00:41:53;;;;;;;0.10;0.10;;;6.50;92.20;;;;;;5067504;28;20060;-83
2022/02/21 00:44:18;;;;;;;0.10;0.10;;;6.40;92.10;;;;;;5065771;28;20024;-83
2022/02/21 00:46:44;;;;;;;0.10;0.10;;;6.30;92.30;;;;;;5084477;28;20067;-83
2022/02/21 00:49:09;;;;;;;0.10;0.10;;;6.40;91.90;;;;;;5068719;28;20574;-83
2022/02/21 00:51:35;;;;;;;0.10;0.10;;;6.40;91.80;;;;;;5071101;28;20017;-83
2022/02/21 00:54:00;;;;;;;0.10;0.10;;;6.30;92.20;;;;;;5084761;28;20063;-83
2022/02/21 00:56:26;;;;;;;0.10;0.10;;;6.30;92.00;;;;;;5068399;28;20435;-83
2022/02/21 00:58:51;;;;;;;0.10;0.10;;;6.20;92.40;;;;;;5072129;28;20035;-83
2022/02/21 01:01:17;;;;;;;0.10;0.10;;;6.20;92.70;;;;;;5069232;28;20020;-83
2022/02/21 01:03:43;;;;;;;0.10;0.10;;;6.20;92.80;;;;;;5069443;28;20150;-83
2022/02/21 01:06:08;;;;;;;0.10;0.10;;;6.10;92.30;;;;;;5059035;28;20032;-83
2022/02/21 01:08:34;;;;;;;0.10;0.10;;;6.10;92.70;;;;;;5063381;28;20059;-83
2022/02/21 01:11:00;;;;;;;24.42;0.85;;;6.00;92.60;;;;;;5068592;28;20024;-84
2022/02/21 01:13:25;;;;;;;0.00;0.00;;;6.00;92.80;;;;;;5070068;28;20082;-84
2022/02/21 01:15:53;;;;;;;0.08;0.08;;;5.90;92.70;;;;;;5072372;28;20089;-83
2022/02/21 01:18:19;;;;;;;0.10;0.10;;;6.00;92.40;;;;;;5058561;28;20511;-83
2022/02/21 01:20:45;;;;;;;0.10;0.10;;;5.90;92.60;;;;;;5065798;28;20093;-83
2022/02/21 01:23:11;;;;;;;0.30;0.30;;;6.00;92.30;;;;;;5069245;28;20040;-83
2022/02/21 01:25:36;;;;;;;0.10;0.10;;;6.00;92.40;;;;;;5065534;28;20044;-83
2022/02/21 01:28:02;;;;;;;0.10;0.10;;;5.90;92.80;;;;;;5071336;28;20392;-83
2022/02/21 01:30:27;;;;;;;0.10;0.10;;;6.00;92.90;;;;;;5072130;28;20028;-83
2022/02/21 01:32:53;;;;;;;0.10;0.10;;;5.90;93.20;;;;;;5082320;28;20049;-83
2022/02/21 01:35:19;;;;;;;0.10;0.10;;;5.90;93.40;;;;;;5069400;28;20116;-83
2022/02/21 01:37:44;;;;;;;0.10;0.10;;;5.80;93.60;;;;;;5073664;28;20503;-83
2022/02/21 01:40:10;;;;;;;0.10;0.10;;;5.80;93.60;;;;;;5070801;28;20443;-83
2022/02/21 01:42:37;;;;;;;0.10;0.10;;;5.80;93.90;;;;;;5072123;28;20037;-84
2022/02/21 01:45:04;;;;;;;1.55;0.52;;;5.80;93.40;;;;;;5073338;28;20024;-83
2022/02/21 01:47:29;;;;;;;1.45;0.60;;;5.70;92.60;;;;;;5071843;28;20024;-83
2022/02/21 01:49:55;;;;;;;4.03;1.20;;;5.70;92.10;;;;;;5067900;28;20388;-83
2022/02/21 01:52:20;;;;;;;4.88;0.95;;;5.70;91.70;;;;;;5073538;28;20545;-83
2022/02/21 01:54:46;;;;;;;4.15;0.75;;;5.60;91.70;;;;;;5062439;28;20123;-83
2022/02/21 01:57:12;;;;;;;2.60;0.55;;;5.60;91.60;;;;;;5070834;28;20438;-83
2022/02/21 01:59:38;;;;;;;1.58;0.55;;;5.70;90.60;;;;;;5072320;28;20134;-82
2022/02/21 02:02:06;;;;;;;3.03;0.88;;;5.60;90.10;;;;;;5070024;28;20519;-83
2022/02/21 02:04:32;;;;;;;2.55;0.73;;;5.60;90.00;;;;;;5070326;28;20087;-83
2022/02/21 02:07:00;;;;;;;3.10;0.85;;;5.50;90.60;;;;;;5074271;28;20060;-83
2022/02/21 02:09:25;;;;;;;2.50;1.17;;;5.40;90.60;;;;;;5070502;28;20427;-83
2022/02/21 02:11:52;;;;;;;5.18;1.10;;;5.50;90.50;;;;;;5071215;28;20028;-83
2022/02/21 02:14:29;;;;;;;3.25;0.88;;;5.50;89.80;;;;;;5071533;28;20055;-83
2022/02/21 02:16:55;;;;;;;5.05;0.80;;;5.40;89.70;;;;;;5064585;28;20036;-83
2022/02/21 02:19:20;;;;;;;5.35;0.98;;;5.40;89.70;;;;;;5070310;28;20041;-82
2022/02/21 02:21:52;;;;;;;4.32;1.17;;;5.50;89.80;;;;;;5069555;28;20124;-83
2022/02/21 02:24:21;;;;;;;4.70;0.90;;;5.40;90.30;;;;;;5071995;28;20479;-83
2022/02/21 02:26:46;;;;;;;4.07;0.73;;;5.40;90.50;;;;;;5071623;28;20029;-83
2022/02/21 02:29:12;;;;;;;3.50;0.80;;;5.30;91.20;;;;;;5072963;28;20420;-83
2022/02/21 02:31:37;;;;;;;5.68;0.93;;;5.20;90.90;;;;;;5071662;28;20024;-83
2022/02/21 02:34:03;;;;;;;4.60;0.80;;;5.10;91.40;;;;;;5069420;28;20496;-83
2022/02/21 02:36:28;;;;;;;3.67;0.95;;;5.10;91.00;;;;;;5065411;28;20017;-83
2022/02/21 02:38:53;;;;;;;4.47;1.20;;;4.90;91.00;;;;;;5072129;28;20037;-83
2022/02/21 02:41:19;;;;;;;5.78;1.05;;;4.80;90.50;;;;;;5082072;28;20033;-83
2022/02/21 02:43:45;;;;;;;8.60;1.75;;;4.80;90.90;;;;;;5058805;28;20025;-83
2022/02/21 02:46:10;;;;;;;5.95;1.60;;;4.80;90.50;;;;;;5071032;28;20040;-83
2022/02/21 02:48:36;;;;;;;5.75;1.25;;;4.80;90.70;;;;;;5063758;28;20028;-82
2022/02/21 02:51:02;;;;;;;10.55;1.17;;;4.70;90.70;;;;;;5068761;28;20523;-83
2022/02/21 02:53:31;;;;;;;7.82;0.80;;;4.70;90.20;;;;;;5069880;28;20099;-83
2022/02/21 02:55:56;;;;;;;7.28;1.38;;;4.70;90.80;;;;;;5070621;28;20473;-83
2022/02/21 02:58:22;;;;;;;7.05;1.65;;;4.70;90.30;;;;;;5073082;28;20120;-83
2022/02/21 03:00:47;;;;;;;4.18;0.80;;;4.70;90.60;;;;;;5059987;28;20024;-83
2022/02/21 03:03:14;;;;;;;10.65;1.52;;;4.70;90.20;;;;;;5070965;28;20039;-83
2022/02/21 03:05:39;;;;;;;6.88;1.52;;;4.70;90.50;;;;;;5068883;28;20048;-83
2022/02/21 03:08:05;;;;;;;6.10;1.25;;;4.60;90.30;;;;;;5071789;28;20435;-83
2022/02/21 03:10:30;;;;;;;7.60;1.52;;;4.60;90.60;;;;;;5070551;28;20060;-83
2022/02/21 03:12:56;;;;;;;12.60;2.25;;;4.60;90.40;;;;;;5065253;28;20024;-83
2022/02/21 03:15:21;;;;;;;11.32;2.38;;;4.70;89.40;;;;;;5071237;28;20066;-83
2022/02/21 03:17:47;;;;;;;9.98;1.95;;;4.60;89.90;;;;;;5070788;28;20067;-83
2022/02/21 03:20:13;;;;;;;6.65;1.83;;;4.60;89.90;;;;;;5068476;28;20051;-83
2022/02/21 03:22:39;;;;;;;16.60;1.63;;;4.80;89.20;;;;;;5070797;28;20025;-82
2022/02/21 03:25:05;;;;;;;13.50;2.95;;;4.80;89.30;;;;;;5062430;28;20066;-83
2022/02/21 03:27:31;;;;;;;7.28;1.90;;;4.80;88.30;;;;;;5071453;28;20481;-83
2022/02/21 03:29:56;;;;;;;12.40;2.97;;;4.80;87.90;;;;;;5051725;28;20029;-83
2022/02/21 03:32:22;;;;;;;11.25;2.63;;;4.90;86.80;;;;;;5088810;28;20025;-83
2022/02/21 03:34:47;;;;;;;19.75;2.67;;;4.80;86.90;;;;;;5068842;28;20527;-83
2022/02/21 03:37:14;;;;;;;15.95;3.30;;;4.90;86.40;;;;;;5071926;28;20452;-83
2022/02/21 03:39:39;;;;;;;16.88;3.28;;;4.80;86.00;;;;;;5070643;28;20024;-83
2022/02/21 03:42:05;;;;;;;15.57;2.38;;;4.90;85.80;;;;;;5070436;28;20040;-83
2022/02/21 03:44:30;;;;;;;9.93;1.98;;;4.80;86.60;;;;;;5070383;28;20040;-83
2022/02/21 03:46:56;;;;;;;10.80;2.17;;;4.80;86.60;;;;;;5070435;28;20116;-83
2022/02/21 03:49:21;;;;;;;10.82;2.60;;;4.80;86.40;;;;;;5074080;28;20033;-82
2022/02/21 03:51:47;;;;;;;14.43;3.42;;;4.80;86.10;;;;;;5070163;28;20039;-82
2022/02/21 03:54:12;;;;;;;11.55;2.55;;;4.80;85.60;;;;;;5067952;28;20024;-82
2022/02/21 03:56:38;;;;;;;11.32;3.03;;;4.60;87.10;;;;;;5066500;28;20499;-82
2022/02/21 03:59:04;;;;;;;8.55;2.08;;;4.60;87.00;;;;;;5071188;28;20028;-82
2022/02/21 04:01:29;;;;;;;7.18;2.33;;;4.50;86.40;;;;;;5065092;28;20079;-82
2022/02/21 04:03:55;;;;;;;7.10;1.77;;;4.20;87.30;;;;;;5066411;28;20045;-82
2022/02/21 04:06:20;;;;;;;14.65;1.98;;;4.00;89.10;;;;;;5058697;28;20069;-82
2022/02/21 04:08:46;;;;;;;12.63;2.40;;;3.90;88.40;;;;;;5080011;28;20135;-82
2022/02/21 04:11:11;;;;;;;10.60;2.03;;;3.80;90.20;;;;;;5067150;28;20111;-82
2022/02/21 04:13:37;;;;;;;8.20;2.83;;;3.80;90.00;;;;;;5071092;28;20032;-82
2022/02/21 04:16:02;;;;;;;20.38;2.92;;;3.90;89.50;;;;;;5070119;28;20486;-82
2022/02/21 04:18:28;;;;;;;16.70;3.45;;;3.80;90.40;;;;;;5068830;28;20565;-82
2022/02/21 04:20:53;;;;;;;9.32;2.17;;;3.80;90.30;;;;;;5067642;28;20033;-82
2022/02/21 04:23:19;;;;;;;10.45;2.00;;;3.80;90.00;;;;;;5074671;28;20017;-82
2022/02/21 04:25:45;;;;;;;12.88;2.58;;;3.90;89.10;;;;;;5067084;28;20021;-82
2022/02/21 04:28:10;;;;;;;13.82;2.00;;;3.90;89.00;;;;;;5068563;28;20040;-82
2022/02/21 04:30:37;;;;;;;12.60;2.75;;;3.90;88.80;;;;;;5068296;28;20012;-82
2022/02/21 04:33:03;;;;;;;9.25;2.28;;;3.90;88.40;;;;;;5068074;28;20028;-82
2022/02/21 04:35:29;;;;;;;9.15;2.25;;;4.00;87.50;;;;;;5057406;28;20027;-82
2022/02/21 04:37:55;;;;;;;10.77;2.70;;;4.10;85.90;;;;;;5086429;28;20480;-82
2022/02/21 04:40:24;;;;;;;9.20;2.17;;;4.10;85.90;;;;;;5067525;28;20036;-82
2022/02/21 04:42:50;;;;;;;13.57;2.22;;;4.10;84.40;;;;;;5069858;28;20025;-82
2022/02/21 04:45:16;;;;;;;9.25;2.42;;;4.10;84.20;;;;;;5070008;28;20021;-82
2022/02/21 04:47:41;;;;;;;6.30;1.65;;;4.10;83.80;;;;;;5064921;28;20025;-82
2022/02/21 04:50:08;;;;;;;7.60;2.03;;;4.00;84.30;;;;;;5066899;28;20032;-82
2022/02/21 04:52:35;;;;;;;12.65;3.05;;;3.90;84.40;;;;;;5069411;28;20031;-84
2022/02/21 04:55:02;;;;;;;9.48;1.92;;;4.00;84.00;;;;;;5066561;28;20151;-84
2022/02/21 04:57:28;;;;;;;14.40;3.22;;;4.00;83.80;;;;;;5067162;28;20379;-84
2022/02/21 04:59:53;;;;;;;9.48;1.98;;;4.00;83.70;;;;;;5062554;28;20123;-85
2022/02/21 05:02:19;;;;;;;11.43;3.08;;;3.90;84.40;;;;;;5065289;28;20028;-85
2022/02/21 05:04:44;;;;;;;11.13;1.90;;;3.70;85.70;;;;;;5067320;28;20056;-84
2022/02/21 05:07:10;;;;;;;11.98;2.75;;;3.70;85.70;;;;;;5055904;28;20493;-85
2022/02/21 05:09:35;;;;;;;13.50;2.25;;;3.60;86.50;;;;;;5063311;28;20028;-85
2022/02/21 05:12:01;;;;;;;13.23;2.28;;;3.60;86.60;;;;;;5067533;28;20089;-85
2022/02/21 05:14:26;;;;;;;15.48;2.72;;;3.70;86.60;;;;;;5069776;28;20036;-84
2022/02/21 05:16:52;;;;;;;12.32;2.20;;;3.80;86.40;;;;;;5067798;28;20496;-84
2022/02/21 05:19:18;;;;;;;21.05;2.53;;;3.80;86.70;;;;;;5067771;28;20140;-85
2022/02/21 05:21:43;;;;;;;9.63;2.40;;;3.80;87.00;;;;;;5068735;28;20035;-85
2022/02/21 05:24:09;;;;;;;13.15;2.85;;;3.80;87.20;;;;;;5069456;28;20502;-85
2022/02/21 05:26:34;;;;;;;11.48;2.00;;;3.80;87.10;;;;;;5066984;28;20028;-85
2022/02/21 05:29:00;;;;;;;13.18;2.72;;;3.90;86.60;;;;;;5069455;28;20344;-84
2022/02/21 05:31:25;;;;;;;8.18;2.20;;;4.00;85.40;;;;;;5068644;28;20518;-81
2022/02/21 05:33:52;;;;;;;9.27;2.10;;;4.00;85.50;;;;;;5067636;28;20032;-84
2022/02/21 05:36:17;;;;;;;13.95;2.70;;;3.80;86.00;;;;;;5064863;28;20115;-84
2022/02/21 05:38:44;;;;;;;18.77;2.90;;;3.90;85.90;;;;;;5068461;28;20163;-84
2022/02/21 05:41:10;;;;;;;11.18;2.28;;;3.90;84.90;;;;;;5069535;28;20422;-84
2022/02/21 05:43:36;;;;;;;17.05;3.65;;;3.80;85.30;;;;;;5064379;28;20052;-85
2022/02/21 05:46:02;;;;;;;14.07;2.53;;;3.70;86.00;;;;;;5066251;28;20033;-85
2022/02/21 05:48:28;;;;;;;10.80;2.17;;;3.70;85.70;;;;;;5071905;28;20032;-85
2022/02/21 05:50:53;;;;;;;15.05;2.78;;;3.70;85.70;;;;;;5065427;28;20039;-85
2022/02/21 05:53:19;;;;;;;10.57;2.17;;;3.70;85.50;;;;;;5068856;28;20024;-85
2022/02/21 05:55:44;;;;;;;14.43;3.47;;;3.70;85.50;;;;;;5064994;28;20094;-85
2022/02/21 05:58:10;;;;;;;9.57;2.67;;;3.70;84.90;;;;;;5065803;28;20033;-85
2022/02/21 06:00:35;;;;;;;11.20;2.17;;;3.70;85.00;;;;;;5056495;28;20413;-85
2022/02/21 06:03:01;;;;;;;7.53;1.52;;;3.70;85.30;;;;;;5067328;28;20028;-84
2022/02/21 06:05:27;;;;;;;11.00;1.90;;;3.60;86.30;;;;;;5062410;28;20497;-84
2022/02/21 06:07:53;;;;;;;14.43;2.85;;;3.50;86.90;;;;;;5068145;28;20039;-84
2022/02/21 06:10:19;;;;;;;14.57;2.38;;;3.30;87.70;;;;;;5065182;28;20372;-84
2022/02/21 06:12:44;;;;;;;13.93;2.85;;;3.30;87.60;;;;;;5064888;28;20111;-84
2022/02/21 06:15:10;;;;;;;9.25;2.83;;;3.20;88.20;;;;;;5069575;28;20519;-84
2022/02/21 06:17:36;;;;;;;11.48;2.08;;;3.30;86.90;;;;;;5069130;28;20032;-84
2022/02/21 06:20:01;;;;;;;12.45;2.53;;;3.30;87.30;;;;;;5068715;28;20028;-84
2022/02/21 06:22:27;;;;;;;11.82;2.15;;;3.40;86.60;;;;;;5066500;28;20032;-84
2022/02/21 06:24:52;;;;;;;11.02;2.30;;;3.40;86.20;;;;;;5068851;28;20032;-84
2022/02/21 06:27:18;;;;;;;12.35;2.38;;;3.50;85.30;;;;;;5069467;28;20028;-85
2022/02/21 06:29:43;;;;;;;11.65;2.38;;;3.60;84.30;;;;;;5069757;28;20115;-85
2022/02/21 06:32:09;;;;;;;15.57;2.70;;;3.60;84.50;;;;;;5063942;28;20029;-85
2022/02/21 06:34:34;;;;;;;10.10;2.13;;;3.50;85.20;;;;;;5065972;28;20571;-85
2022/02/21 06:37:00;;;;;;;9.75;2.22;;;3.40;85.90;;;;;;5070888;28;20555;-85
2022/02/21 06:39:25;;;;;;;9.93;2.40;;;3.40;86.60;;;;;;5083986;28;20025;-84
2022/02/21 06:41:51;;;;;;;6.05;1.58;;;3.30;87.10;;;;;;5067188;28;20042;-84
2022/02/21 06:44:17;;;;;;;11.98;2.38;;;3.20;87.30;;;;;;5069725;28;20036;-85
2022/02/21 06:46:43;;;;;;;9.02;2.22;;;3.10;88.20;;;;;;5065068;28;20048;-85
2022/02/21 06:49:10;;;;;;;13.70;2.97;;;3.10;88.60;;;;;;5068258;28;20052;-84
2022/02/21 06:51:36;;;;;;;16.27;2.80;;;3.10;88.80;;;;;;5068517;28;20024;-85
2022/02/21 06:54:06;;;;;;;10.90;2.40;;;3.00;89.40;;;;;;5069253;28;20141;-85
2022/02/21 06:56:32;;;;;;;12.82;2.85;;;2.90;89.70;;;;;;5070780;28;20024;-85
2022/02/21 06:58:58;;;;;;;25.77;3.90;;;2.80;89.90;;;;;;5071546;28;20035;-85
2022/02/21 07:01:23;;;;;;;18.58;3.45;;;2.90;89.80;;;;;;5070220;28;20033;-85
2022/02/21 07:03:50;;;;;;;14.38;2.72;;;3.00;89.20;;;;;;5069756;28;20131;-85
2022/02/21 07:06:15;;;;;;;17.70;3.20;;;3.20;87.90;;;;;;5056251;28;20048;-85
2022/02/21 07:08:42;;;;;;;8.88;2.50;;;3.30;87.20;;;;;;5070158;28;20071;-85
2022/02/21 07:11:08;;;;;;;11.32;2.17;;;3.40;86.50;;;;;;5070510;28;20066;-85
2022/02/21 07:13:37;;;;;;;21.35;3.65;;;3.40;86.00;;;;;;5071795;28;20556;-85
2022/02/21 07:16:03;;;;;;;14.35;3.22;;;3.50;85.70;;;;;;5072073;28;20048;-85
2022/02/21 07:18:28;;;;;;;11.43;2.75;;;3.50;85.80;;;;;;5071416;28;20063;-85
2022/02/21 07:20:54;;;;;;;9.35;2.25;;;3.50;85.90;;;;;;5068036;28;20123;-85
2022/02/21 07:23:20;;;;;;;9.35;2.53;;;3.60;85.70;;;;;;5067752;28;20024;-85
2022/02/21 07:25:46;;;;;;;21.27;3.00;;;3.60;85.30;;;;;;5059836;28;20484;-85
2022/02/21 07:28:12;;;;;;;8.63;1.98;;;3.60;85.40;;;;;;5085142;28;20024;-85
2022/02/21 07:30:38;;;;;;;6.32;1.90;;;3.60;85.50;;;;;;5068784;28;20027;-85
2022/02/21 07:33:03;;;;;;;9.02;2.40;;;3.60;85.00;;;;;;5069495;28;20369;-85
2022/02/21 07:35:29;;;;;;;8.93;2.33;;;3.60;84.80;;;;;;5068747;28;20099;-85
2022/02/21 07:37:55;;;;;;;8.30;2.45;;;3.60;84.60;;;;;;5071009;28;20043;-85
2022/02/21 07:40:21;;;;;;;19.38;2.17;;;3.70;83.70;;;;;;5070341;28;20055;-85
2022/02/21 07:42:49;;;;;;;6.65;1.52;;;3.80;84.00;;;;;;5070354;28;20032;-85
2022/02/21 07:45:19;;;;;;;4.40;1.60;;;3.80;84.10;;;;;;5068073;28;20077;-85
2022/02/21 07:47:50;;;;;;;7.82;1.85;;;3.90;83.80;;;;;;5069737;28;20028;-85
2022/02/21 07:50:15;;;;;;;;;;;4.00;84.30;;;;;;5070019;28;20376;-85
2022/02/21 07:52:42;;;;;;;7.47;2.10;;;4.00;83.30;;;;;;5060004;28;19924;-85
2022/02/21 07:55:08;;;;;;;12.65;2.42;;;4.10;84.10;;;;;;5068235;28;20031;-85
2022/02/21 07:57:34;;;;;;;9.50;2.17;;;4.10;84.20;;;;;;5060680;28;20028;-85
2022/02/21 07:59:59;;;;;;;15.75;2.72;;;4.10;84.10;;;;;;5070633;28;20119;-85
2022/02/21 08:02:25;;;;;;;6.55;1.05;;;4.10;84.20;;;;;;5073773;28;20068;-86
2022/02/21 08:04:51;;;;;;;7.90;1.98;;;3.90;84.20;;;;;;5073996;28;20151;-85
2022/02/21 08:07:16;;;;;;;8.05;1.85;;;3.80;84.70;;;;;;5072928;28;20038;-86
2022/02/21 08:09:42;;;;;;;9.70;1.70;;;3.70;86.00;;;;;;5070075;28;20025;-85
2022/02/21 08:12:08;;;;;;;16.33;3.10;;;3.60;86.20;;;;;;5069854;28;20033;-85
2022/02/21 08:14:35;;;;;;;7.95;2.17;;;3.40;87.40;;;;;;5070722;28;20013;-85
2022/02/21 08:17:01;;;;;;;8.10;2.05;;;3.20;88.70;;;;;;5062887;28;20087;-85
2022/02/21 08:19:27;;;;;;;9.65;2.70;;;3.10;89.80;;;;;;5060856;28;20620;-85
2022/02/21 08:21:52;;;;;;;12.77;2.60;;;3.00;90.50;;;;;;5068686;28;20484;-85
2022/02/21 08:24:19;;;;;;;8.55;1.95;;;2.90;90.70;;;;;;5068565;28;20024;-85
2022/02/21 08:26:45;;;;;;;11.30;1.80;;;2.90;91.10;;;;;;5065336;28;20731;-85
2022/02/21 08:29:10;;;;;;;9.30;2.08;;;2.80;91.50;;;;;;5070016;28;20036;-85
2022/02/21 08:31:36;;;;;;;10.35;2.50;;;2.90;91.70;;;;;;5069353;28;20400;-85
2022/02/21 08:34:01;;;;;;;12.30;2.25;;;2.90;91.70;;;;;;5068547;28;20078;-85
2022/02/21 08:36:27;;;;;;;10.07;1.88;;;2.90;91.70;;;;;;5069039;28;20472;-85
2022/02/21 08:38:53;;;;;;;10.27;1.67;;;3.00;91.40;;;;;;5075127;28;20085;-85
2022/02/21 08:41:19;;;;;;;10.23;2.05;;;3.10;91.30;;;;;;5068190;28;20127;-85
2022/02/21 08:43:44;;;;;;;10.80;1.77;;;3.20;91.30;;;;;;5059229;28;20123;-85
2022/02/21 08:46:11;;;;;;;10.02;2.00;;;3.10;90.90;;;;;;5069606;28;20028;-85
2022/02/21 08:48:37;;;;;;;12.95;2.58;;;3.10;91.30;;;;;;5084947;28;20044;-85
2022/02/21 08:51:03;;;;;;;13.45;2.15;;;3.00;91.80;;;;;;5069052;28;20103;-85
2022/02/21 08:53:28;;;;;;;12.02;2.38;;;2.90;92.30;;;;;;5065117;28;20049;-85
2022/02/21 08:55:54;;;;;;;9.13;1.90;;;2.70;92.40;;;;;;5078060;28;20075;-85
2022/02/21 08:58:20;;;;;;;9.77;2.40;;;2.70;92.80;;;;;;5084573;28;20025;-85
2022/02/21 09:00:45;;;;;;;7.65;2.05;;;2.60;93.20;;;;;;5084244;28;20100;-85
2022/02/21 09:03:11;;;;;;;10.55;2.47;;;2.60;93.30;;;;;;5065264;28;20395;-85
2022/02/21 09:05:36;;;;;;;11.25;2.17;;;2.60;93.40;;;;;;5068776;28;20050;-85
2022/02/21 09:08:04;;;;;;;5.93;1.88;;;2.60;93.40;;;;;;5069740;28;20507;-85
2022/02/21 09:10:30;;;;;;;10.10;2.45;;;2.60;93.60;;;;;;5067661;28;20492;-85
2022/02/21 09:12:56;;;;;;;7.97;2.00;;;2.70;93.40;;;;;;5068754;28;20369;-84
2022/02/21 09:15:22;;;;;;;16.35;3.45;;;2.80;93.20;;;;;;5068054;28;20021;-85
2022/02/21 09:17:47;;;;;;;13.00;2.53;;;2.80;93.20;;;;;;5068017;28;20024;-85
2022/02/21 09:20:15;;;;;;;11.82;2.67;;;2.90;93.10;;;;;;5062771;28;20496;-85
2022/02/21 09:22:40;;;;;;;10.93;2.67;;;3.00;92.90;;;;;;5070484;28;20040;-85
2022/02/21 09:25:07;;;;;;;11.57;2.30;;;3.00;92.80;;;;;;5069570;28;20033;-85
2022/02/21 09:27:32;;;;;;;11.15;2.30;;;3.10;92.60;;;;;;5070240;28;20492;-85
2022/02/21 09:29:58;;;;;;;16.23;2.58;;;3.20;92.60;;;;;;5066986;28;20025;-84
2022/02/21 09:32:23;;;;;;;9.75;2.38;;;3.20;92.10;;;;;;5067247;28;20103;-85
2022/02/21 09:34:49;;;;;;;18.50;3.30;;;3.30;91.90;;;;;;5067771;28;20040;-85
2022/02/21 09:37:14;;;;;;;11.07;2.75;;;3.30;91.60;;;;;;5064892;28;20455;-85
2022/02/21 09:39:40;;;;;;;15.77;3.45;;;3.40;91.30;;;;;;5071700;28;20051;-85
2022/02/21 09:42:06;;;;;;;12.70;2.10;;;3.50;91.30;;;;;;5066277;28;20032;-85
2022/02/21 09:44:31;;;;;;;12.43;3.05;;;3.50;90.80;;;;;;5068128;28;20040;-85
2022/02/21 09:46:57;;;;;;;18.27;2.97;;;3.50;90.30;;;;;;5061431;28;20037;-86
2022/02/21 09:49:24;;;;;;;8.60;2.10;;;3.60;90.00;;;;;;5068880;28;20039;-85
2022/02/21 09:51:50;;;;;;;15.98;2.58;;;3.70;89.30;;;;;;5063910;28;20480;-85
2022/02/21 09:54:15;;;;;;;10.48;2.65;;;3.80;89.60;;;;;;5067937;28;20111;-85
2022/02/21 09:56:43;;;;;;;16.05;3.00;;;3.90;88.70;;;;;;5072684;28;20031;-85
2022/02/21 09:59:09;;;;;;;14.63;2.75;;;4.00;89.00;;;;;;5071382;28;20061;-85
2022/02/21 10:01:38;;;;;;;12.80;2.88;;;4.10;88.40;;;;;;5072542;28;20025;-85
2022/02/21 10:04:05;;;;;;;11.05;2.60;;;4.10;88.20;;;;;;5072254;28;20504;-84
2022/02/21 10:06:32;;;;;;;11.57;2.65;;;4.20;88.00;;;;;;5071549;28;20040;-85
2022/02/21 10:09:01;;;;;;;11.15;2.25;;;4.30;87.60;;;;;;5062328;28;20059;-85
2022/02/21 10:11:29;;;;;;;9.52;2.28;;;4.30;87.10;;;;;;5068623;28;20025;-85
2022/02/21 10:13:59;;;;;;;8.43;2.20;;;4.30;86.20;;;;;;5067163;28;20358;-85
2022/02/21 10:16:25;;;;;;;10.00;2.53;;;4.40;86.20;;;;;;5069759;28;20048;-85
2022/02/21 10:19:12;;;;;;;14.32;2.13;;;4.50;86.20;;;;;;5075599;28;20040;-85
2022/02/21 10:21:48;;;;;;;12.23;2.88;;;4.60;85.30;;;;;;5069477;28;20035;-85
2022/02/21 10:24:13;;;;;;;13.48;2.15;;;4.70;85.30;;;;;;5083417;28;20560;-85
2022/02/21 10:26:41;;;;;;;11.88;2.15;;;4.70;84.50;;;;;;5081377;28;20115;-85
2022/02/21 10:29:07;;;;;;;14.18;2.45;;;4.80;83.70;;;;;;5071412;28;20032;-85
2022/02/21 10:31:33;;;;;;;13.60;2.35;;;4.90;83.90;;;;;;5069974;28;20020;-86
2022/02/21 10:34:01;;;;;;;16.50;3.00;;;4.90;84.20;;;;;;5067594;28;20029;-86
2022/02/21 10:36:47;;;;;;;10.45;2.03;;;5.00;84.10;;;;;;5073745;28;20027;-85
2022/02/21 10:39:18;;;;;;;12.60;2.20;;;4.90;84.50;;;;;;5062675;28;20130;-85
2022/02/21 10:41:49;;;;;;;11.98;2.45;;;4.90;84.50;;;;;;5070214;28;20028;-85
2022/02/21 10:44:28;;;;;;;13.18;2.20;;;4.80;84.40;;;;;;5068270;28;20055;-85
2022/02/21 10:47:03;;;;;;;12.45;2.20;;;4.70;84.50;;;;;;5070876;28;20103;-85
2022/02/21 10:49:32;;;;;;;11.13;2.42;;;4.60;85.50;;;;;;5055530;28;20113;-85
2022/02/21 10:51:58;;;;;;;16.58;2.75;;;4.60;86.70;;;;;;5066138;28;20376;-85
2022/02/21 10:54:32;;;;;;;9.55;2.03;;;4.40;86.90;;;;;;5076381;28;20029;-85
2022/02/21 10:56:58;;;;;;;8.98;1.83;;;4.30;87.80;;;;;;5070571;28;20016;-85
2022/02/21 10:59:28;;;;;;;9.48;2.15;;;4.10;88.10;;;;;;5071782;28;20028;-85
2022/02/21 11:01:55;;;;;;;14.68;2.28;;;4.10;87.90;;;;;;5068103;28;20043;-85
2022/02/21 11:04:25;;;;;;;11.95;2.03;;;4.10;88.40;;;;;;5065363;28;20056;-85
2022/02/21 11:06:55;;;;;;;18.02;2.38;;;4.10;88.20;;;;;;5067401;28;20184;-85
2022/02/21 11:09:24;;;;;;;17.50;3.33;;;4.10;88.50;;;;;;5065731;28;20114;-85
2022/02/21 11:11:50;;;;;;;9.07;2.03;;;4.10;88.90;;;;;;5080405;28;20480;-85
2022/02/21 11:14:23;;;;;;;10.23;2.35;;;4.10;89.20;;;;;;5069863;28;20059;-85
2022/02/21 11:16:50;;;;;;;11.73;2.95;;;4.10;88.90;;;;;;5065142;28;20048;-85
2022/02/21 11:19:19;;;;;;;6.78;1.60;;;4.00;88.90;;;;;;5068625;28;20024;-85
2022/02/21 11:21:46;;;;;;;11.88;2.00;;;4.00;88.50;;;;;;5067631;28;20416;-85
2022/02/21 11:24:17;;;;;;;14.13;2.80;;;4.00;88.40;;;;;;5070276;28;20035;-85
2022/02/21 11:27:11;;;;;;;15.50;2.65;;;4.00;89.20;;;;;;5065760;28;20445;-85
2022/02/21 11:30:02;;;;;;;8.80;2.25;;;4.10;89.20;;;;;;5057830;28;20032;-85
2022/02/21 11:32:27;;;;;;;11.40;1.85;;;4.10;89.10;;;;;;5065421;28;20029;-85
2022/02/21 11:35:12;;;;;;;16.88;2.88;;;4.20;89.30;;;;;;5068179;28;20123;-85
2022/02/21 11:37:38;;;;;;;9.45;1.95;;;4.20;89.60;;;;;;5070825;28;20374;-85
2022/02/21 11:40:06;;;;;;;8.48;2.75;;;4.20;89.80;;;;;;5067871;28;20537;-85
2022/02/21 11:42:36;;;;;;;12.65;2.22;;;4.20;90.20;;;;;;5057984;28;20522;-85
2022/02/21 11:45:04;;;;;;;6.10;2.03;;;4.20;90.00;;;;;;5076877;28;20025;-85
2022/02/21 11:47:41;;;;;;;12.10;1.85;;;4.10;90.00;;;;;;5069868;28;20492;-85
2022/02/21 11:50:19;;;;;;;7.15;2.03;;;4.10;90.10;;;;;;5061797;28;20028;-85
2022/02/21 11:52:50;;;;;;;9.95;1.70;;;4.10;90.60;;;;;;5060145;28;20029;-85
2022/02/21 11:55:32;;;;;;;11.95;2.20;;;4.10;91.00;;;;;;5069035;28;20024;-85
2022/02/21 11:57:59;;;;;;;10.73;2.05;;;4.00;91.30;;;;;;5063013;28;20047;-85
2022/02/21 12:00:38;;;;;;;7.90;1.70;;;4.00;91.60;;;;;;5068997;28;20029;-85
2022/02/21 12:03:25;;;;;;;8.80;1.63;;;3.90;91.60;;;;;;5062654;28;20081;-85
2022/02/21 12:05:57;;;;;;;8.48;1.73;;;3.80;91.80;;;;;;5065922;28;20095;-85
2022/02/21 12:08:25;;;;;;;8.88;2.33;;;3.80;91.90;;;;;;5064887;28;20044;-85
2022/02/21 12:11:17;;;;;;;14.75;2.72;;;3.80;92.10;;;;;;5064777;28;20035;-85
2022/02/21 12:13:47;;;;;;;10.88;1.85;;;3.70;92.20;;;;;;5067824;28;20365;-85
2022/02/21 12:16:14;;;;;;;10.73;2.20;;;3.70;92.50;;;;;;5059014;28;20028;-85
2022/02/21 12:18:45;;;;;;;7.28;1.77;;;3.70;92.60;;;;;;5066046;28;20435;-85
2022/02/21 12:21:18;;;;;;;4.40;1.40;;;3.60;92.60;;;;;;5067119;28;20568;-85
2022/02/21 12:24:11;;;;;;;9.25;1.30;;;3.60;92.80;;;;;;5084171;28;20029;-85
2022/02/21 12:26:40;;;;;;;6.32;1.55;;;3.50;92.60;;;;;;5062425;28;20127;-87
2022/02/21 12:29:15;;;;;;;8.00;1.50;;;3.50;92.60;;;;;;5069218;28;20032;-85
2022/02/21 12:32:00;;;;;;;10.50;1.20;;;3.50;92.60;;;;;;5061977;28;20917;-85
2022/02/21 12:34:29;;;;;;;4.28;1.40;;;3.40;92.90;;;;;;5065345;28;20035;-85
2022/02/21 12:37:00;;;;;;;6.45;1.52;;;3.40;92.90;;;;;;5067219;28;20469;-85
2022/02/21 12:39:30;;;;;;;4.53;1.10;;;3.30;92.90;;;;;;5085761;28;20029;-86
2022/02/21 12:41:56;;;;;;;7.38;1.55;;;3.20;92.50;;;;;;5069812;28;20029;-86
2022/02/21 12:44:21;;;;;;;2.97;1.20;;;3.20;93.10;;;;;;5083801;28;20043;-86
2022/02/21 12:46:54;;;;;;;4.15;1.33;;;3.20;93.40;;;;;;5070689;28;20059;-85
2022/02/21 12:49:29;;;;;;;2.78;1.20;;;3.20;93.50;;;;;;5062984;28;20419;-86
2022/02/21 12:51:56;;;;;;;5.70;1.50;;;3.10;93.60;;;;;;5070110;28;20082;-85